Time;durP1;ratioP1;P1;durP2;ratioP2;P2;SDS_P1;SDS_P2;PMS_P1;PMS_P2;Temp;Humidity;BMP_temperature;BMP_pressure;BME280_temperature;BME280_humidity;BME280_pressure;Samples;Min_cycle;Max_cycle;Signal;HPM_P1;HPM_P2
2023/04/11 00:01:06;;;;;;;;;;;;;;;;;;5106243;28;20015;-78
2023/04/11 00:04:11;;;;;;;;;;;;;;;;;;5095112;28;19919;-79
2023/04/11 00:07:14;;;;;;;;;;;;;;;;;;5094323;28;19957;-79
2023/04/11 00:10:17;;;;;;;;;;;;;;;;;;5095071;28;19978;-79
2023/04/11 00:13:20;;;;;;;;;;;;;;;;;;5094934;28;19961;-78
2023/04/11 00:16:23;;;;;;;;;;;;;;;;;;5094841;28;19922;-78
2023/04/11 00:19:27;;;;;;;;;;;;;;;;;;5082243;28;19944;-78
2023/04/11 00:22:32;;;;;;;;;;;;;;;;;;5095087;28;19960;-78
2023/04/11 00:25:36;;;;;;;;;;;;;;;;;;5105786;28;20345;-78
2023/04/11 00:28:39;;;;;;;;;;;;;;;;;;5094726;28;19919;-78
2023/04/11 00:31:41;;;;;;;;;;;;;;;;;;5094904;28;20046;-78
2023/04/11 00:34:44;;;;;;;;;;;;;;;;;;5105667;28;19919;-78
2023/04/11 00:37:53;;;;;;;;;;;;;;;;;;5094530;28;20395;-79
2023/04/11 00:40:56;;;;;;;;;;;;;;;;;;5094719;28;19954;-79
2023/04/11 00:44:02;;;;;;;;;;;;;;;;;;5094350;28;19934;-79
2023/04/11 00:47:04;;;;;;;;;;;;;;;;;;5094349;28;19935;-79
2023/04/11 00:50:07;;;;;;;;;;;;;;;;;;5094246;28;19957;-79
2023/04/11 00:53:10;;;;;;;;;;;;;;;;;;5094517;28;19962;-79
2023/04/11 00:56:13;;;;;;;;;;;;;;;;;;5093927;28;19926;-78
2023/04/11 00:59:16;;;;;;;;;;;;;;;;;;5093958;28;20387;-78
2023/04/11 01:02:19;;;;;;;;;;;;;;;;;;5094376;28;19923;-78
2023/04/11 01:05:22;;;;;;;;;;;;;;;;;;5093988;28;19962;-78
2023/04/11 01:08:25;;;;;;;;;;;;;;;;;;5104346;28;19965;-78
2023/04/11 01:11:28;;;;;;;;;;;;;;;;;;5093791;28;19919;-79
2023/04/11 01:14:31;;;;;;;;;;;;;;;;;;5094178;28;20391;-79
2023/04/11 01:17:37;;;;;;;;;;;;;;;;;;5092902;28;19923;-79
2023/04/11 01:20:40;;;;;;;;;;;;;;;;;;5081475;28;20379;-79
2023/04/11 01:23:42;;;;;;;;;;;;;;;;;;5093614;28;19973;-79
2023/04/11 01:26:45;;;;;;;;;;;;;;;;;;5104779;28;19919;-79
2023/04/11 01:29:51;;;;;;;;;;;;;;;;;;5104555;28;19966;-78
2023/04/11 01:32:53;;;;;;;;;;;;;;;;;;5093590;28;19981;-79
2023/04/11 01:35:56;;;;;;;;;;;;;;;;;;5104310;28;20383;-79
2023/04/11 01:39:00;;;;;;;;;;;;;;;;;;5092909;28;19961;-79
2023/04/11 01:42:03;;;;;;;;;;;;;;;;;;5104247;28;20007;-79
2023/04/11 01:45:06;;;;;;;;;;;;;;;;;;5093393;28;19938;-79
2023/04/11 01:48:10;;;;;;;;;;;;;;;;;;5093375;28;19985;-79
2023/04/11 01:51:12;;;;;;;;;;;;;;;;;;5093319;28;19919;-79
2023/04/11 01:54:15;;;;;;;;;;;;;;;;;;5093613;28;19919;-79
2023/04/11 01:57:18;;;;;;;;;;;;;;;;;;5093670;28;19927;-79
2023/04/11 02:00:21;;;;;;;;;;;;;;;;;;5093217;28;19973;-79
2023/04/11 02:03:23;;;;;;;;;;;;;;;;;;5093192;28;19919;-79
2023/04/11 02:06:26;;;;;;;;;;;;;;;;;;5093114;28;20357;-79
2023/04/11 02:09:29;;;;;;;;;;;;;;;;;;5104130;28;20376;-79
2023/04/11 02:12:32;;;;;;;;;;;;;;;;;;5093065;28;19958;-79
2023/04/11 02:15:35;;;;;;;;;;;;;;;;;;5092188;28;19968;-78
2023/04/11 02:18:38;;;;;;;;;;;;;;;;;;5103901;28;19920;-78
2023/04/11 02:21:41;;;;;;;;;;;;;;;;;;5097115;28;19934;-78
2023/04/11 02:24:45;;;;;;;;;;;;;;;;;;5097030;28;19954;-78
2023/04/11 02:27:48;;;;;;;;;;;;;;;;;;5096992;28;19969;-78
2023/04/11 02:30:51;;;;;;;;;;;;;;;;;;5107908;28;19919;-78
2023/04/11 02:33:55;;;;;;;;;;;;;;;;;;5097169;28;19966;-78
2023/04/11 02:36:57;;;;;;;;;;;;;;;;;;5096799;28;20287;-78
2023/04/11 02:40:00;;;;;;;;;;;;;;;;;;5108025;28;20049;-78
2023/04/11 02:43:03;;;;;;;;;;;;;;;;;;5097009;28;19923;-78
2023/04/11 02:46:06;;;;;;;;;;;;;;;;;;5107534;28;19918;-78
2023/04/11 02:49:09;;;;;;;;;;;;;;;;;;5107759;28;19923;-78
2023/04/11 02:52:13;;;;;;;;;;;;;;;;;;5096503;28;19964;-78
2023/04/11 02:55:16;;;;;;;;;;;;;;;;;;5096477;28;19938;-78
2023/04/11 02:58:19;;;;;;;;;;;;;;;;;;5107222;28;19923;-78
2023/04/11 03:01:23;;;;;;;;;;;;;;;;;;5107650;28;19934;-78
2023/04/11 03:04:27;;;;;;;;;;;;;;;;;;5107342;28;20386;-78
2023/04/11 03:07:41;;;;;;;;;;;;;;;;;;5107141;28;19918;-79
2023/04/11 03:10:45;;;;;;;;;;;;;;;;;;5107072;28;19919;-78
2023/04/11 03:13:48;;;;;;;;;;;;;;;;;;5107126;28;20329;-79
2023/04/11 03:16:50;;;;;;;;;;;;;;;;;;5106952;28;20319;-79
2023/04/11 03:19:54;;;;;;;;;;;;;;;;;;5106916;28;19919;-78
2023/04/11 03:22:57;;;;;;;;;;;;;;;;;;5095015;28;20275;-78
2023/04/11 03:26:01;;;;;;;;;;;;;;;;;;5096084;28;19919;-78
2023/04/11 03:29:04;;;;;;;;;;;;;;;;;;5107075;28;20001;-78
2023/04/11 03:32:15;;;;;;;;;;;;;;;;;;5095135;28;19965;-78
2023/04/11 03:35:19;;;;;;;;;;;;;;;;;;5106581;28;19922;-77
2023/04/11 03:38:23;;;;;;;;;;;;;;;;;;5106479;28;19919;-78
2023/04/11 03:41:27;;;;;;;;;;;;;;;;;;5106472;28;20321;-77
2023/04/11 03:44:31;;;;;;;;;;;;;;;;;;5106691;28;19920;-78
2023/04/11 03:47:34;;;;;;;;;;;;;;;;;;5095485;28;19957;-75
2023/04/11 03:50:39;;;;;;;;;;;;;;;;;;5106306;28;20395;-78
2023/04/11 03:53:44;;;;;;;;;;;;;;;;;;5094446;28;19934;-80
2023/04/11 03:57:04;;;;;;;;;;;;;;;;;;5106059;28;20333;-79
2023/04/11 04:00:10;;;;;;;;;;;;;;;;;;5106191;28;19973;-78
2023/04/11 04:03:24;;;;;;;;;;;;;;;;;;5095159;28;19918;-78
2023/04/11 04:06:27;;;;;;;;;;;;;;;;;;5095351;28;20318;-79
2023/04/11 04:09:30;;;;;;;;;;;;;;;;;;5104814;28;19995;-79
2023/04/11 04:12:33;;;;;;;;;;;;;;;;;;5106258;28;19920;-81
2023/04/11 04:15:47;;;;;;;;;;;;;;;;;;5105973;28;19934;-78
2023/04/11 04:18:50;;;;;;;;;;;;;;;;;;5105852;28;19965;-79
2023/04/11 04:21:56;;;;;;;;;;;;;;;;;;5105457;28;20457;-79
2023/04/11 04:25:01;;;;;;;;;;;;;;;;;;5105378;28;19919;-79
2023/04/11 04:28:07;;;;;;;;;;;;;;;;;;5105616;28;19935;-80
2023/04/11 04:31:20;;;;;;;;;;;;;;;;;;5105418;28;19919;-79
2023/04/11 04:34:27;;;;;;;;;;;;;;;;;;5105452;28;19919;-78
2023/04/11 04:37:31;;;;;;;;;;;;;;;;;;5104918;28;19923;-79
2023/04/11 04:40:53;;;;;;;;;;;;;;;;;;5105093;28;20390;-80
2023/04/11 04:43:56;;;;;;;;;;;;;;;;;;5104942;28;19958;-81
2023/04/11 04:47:08;;;;;;;;;;;;;;;;;;5105078;28;19919;-80
2023/04/11 04:50:11;;;;;;;;;;;;;;;;;;5104906;28;19923;-79
2023/04/11 04:53:15;;;;;;;;;;;;;;;;;;5094185;28;19921;-82
2023/04/11 04:56:23;;;;;;;;;;;;;;;;;;5104836;28;20385;-81
2023/04/11 04:59:28;;;;;;;;;;;;;;;;;;5105019;28;20475;-80
2023/04/11 05:02:39;;;;;;;;;;;;;;;;;;5105398;28;20687;-80
2023/04/11 05:05:42;;;;;;;;;;;;;;;;;;5104672;28;20363;-81
2023/04/11 05:08:47;;;;;;;;;;;;;;;;;;5104851;28;20383;-82
2023/04/11 05:11:50;;;;;;;;;;;;;;;;;;5102949;28;20436;-79
2023/04/11 05:14:57;;;;;;;;;;;;;;;;;;5104642;28;19919;-77
2023/04/11 05:18:08;;;;;;;;;;;;;;;;;;5092960;28;19965;-78
2023/04/11 05:21:14;;;;;;;;;;;;;;;;;;5104628;28;19919;-78
2023/04/11 05:24:29;;;;;;;;;;;;;;;;;;5093865;28;19919;-76
2023/04/11 05:27:34;;;;;;;;;;;;;;;;;;5104486;28;20007;-79
2023/04/11 05:30:36;;;;;;;;;;;;;;;;;;5104496;28;19964;-77
2023/04/11 05:33:40;;;;;;;;;;;;;;;;;;5104469;28;20358;-78
2023/04/11 05:36:46;;;;;;;;;;;;;;;;;;5104339;28;20287;-77
2023/04/11 05:39:49;;;;;;;;;;;;;;;;;;5104562;28;19997;-77
2023/04/11 05:42:51;;;;;;;;;;;;;;;;;;5093400;28;20387;-78
2023/04/11 05:45:55;;;;;;;;;;;;;;;;;;5093510;28;19977;-78
2023/04/11 05:48:58;;;;;;;;;;;;;;;;;;5104278;28;20061;-76
2023/04/11 05:56:00;;;;;;;;;;;;;;;;;;5078384;28;19926;-79
2023/04/11 05:59:07;;;;;;;;;;;;;;;;;;5092593;28;19966;-78
2023/04/11 06:02:10;;;;;;;;;;;;;;;;;;5091370;28;20427;-77
2023/04/11 06:05:15;;;;;;;;;;;;;;;;;;5093327;28;19984;-77
2023/04/11 06:08:18;;;;;;;;;;;;;;;;;;5093109;28;19965;-77
2023/04/11 06:11:21;;;;;;;;;;;;;;;;;;5092993;28;19920;-73
2023/04/11 06:14:24;;;;;;;;;;;;;;;;;;5092754;28;19935;-78
2023/04/11 06:17:26;;;;;;;;;;;;;;;;;;5092902;28;19923;-77
2023/04/11 06:20:30;;;;;;;;;;;;;;;;;;5092943;28;20001;-77
2023/04/11 06:23:35;;;;;;;;;;;;;;;;;;5092750;28;19934;-76
2023/04/11 06:26:38;;;;;;;;;;;;;;;;;;5093296;28;19935;-77
2023/04/11 06:29:44;;;;;;;;;;;;;;;;;;5092905;28;19935;-76
2023/04/11 06:32:51;;;;;;;;;;;;;;;;;;5092871;28;20008;-77
2023/04/11 06:35:53;;;;;;;;;;;;;;;;;;5092800;28;19923;-76
2023/04/11 06:38:56;;;;;;;;;;;;;;;;;;5092274;28;19934;-76
2023/04/11 06:41:59;;;;;;;;;;;;;;;;;;5092867;28;19970;-76
2023/04/11 06:45:03;;;;;;;;;;;;;;;;;;5093105;28;19954;-76
2023/04/11 06:48:06;;;;;;;;;;;;;;;;;;5092839;28;20284;-77
2023/04/11 06:51:09;;;;;;;;;;;;;;;;;;5092737;28;19985;-77
2023/04/11 06:54:13;;;;;;;;;;;;;;;;;;5092744;28;19965;-78
2023/04/11 06:57:16;;;;;;;;;;;;;;;;;;5093017;28;20016;-78
2023/04/11 07:00:19;;;;;;;;;;;;;;;;;;5092707;28;19927;-77
2023/04/11 07:03:23;;;;;;;;;;;;;;;;;;5092481;28;20356;-78
2023/04/11 07:06:27;;;;;;;;;;;;;;;;;;5095009;28;20299;-75
2023/04/11 07:09:30;;;;;;;;;;;;;;;;;;5096146;28;20386;-76
2023/04/11 07:12:36;;;;;;;;;;;;;;;;;;5107036;28;20009;-75
2023/04/11 07:15:42;;;;;;;;;;;;;;;;;;5095184;28;19923;-77
2023/04/11 07:18:45;;;;;;;;;;;;;;;;;;5096002;28;19920;-74
2023/04/11 07:21:47;;;;;;;;;;;;;;;;;;5096025;28;20303;-74
2023/04/11 07:24:50;;;;;;;;;;;;;;;;;;5093939;28;20011;-74
2023/04/11 07:27:53;;;;;;;;;;;;;;;;;;5093903;28;19918;-75
2023/04/11 07:30:56;;;;;;;;;;;;;;;;;;5093719;28;19919;-76
2023/04/11 07:33:59;;;;;;;;;;;;;;;;;;5093586;28;20081;-73
2023/04/11 07:37:02;;;;;;;;;;;;;;;;;;5095154;28;19927;-72
2023/04/11 07:40:08;;;;;;;;;;;;;;;;;;5095504;28;19962;-71
2023/04/11 07:43:11;;;;;;;;;;;;;;;;;;5095599;28;19923;-72
2023/04/11 07:46:14;;;;;;;;;;;;;;;;;;5095513;28;19918;-71
2023/04/11 07:49:17;;;;;;;;;;;;;;;;;;5095504;28;19958;-75
2023/04/11 07:52:20;;;;;;;;;;;;;;;;;;5095345;28;20029;-74
2023/04/11 07:55:22;;;;;;;;;;;;;;;;;;5095130;28;19963;-76
2023/04/11 07:58:25;;;;;;;;;;;;;;;;;;5094650;28;19927;-72
2023/04/11 08:01:28;;;;;;;;;;;;;;;;;;5095260;28;19919;-73
2023/04/11 08:04:32;;;;;;;;;;;;;;;;;;5093501;28;20011;-70
2023/04/11 08:07:35;;;;;;;;;;;;;;;;;;5093336;28;19919;-72
2023/04/11 08:10:37;;;;;;;;;;;;;;;;;;5094908;28;20383;-72
2023/04/11 08:13:40;;;;;;;;;;;;;;;;;;5094961;28;20359;-71
2023/04/11 08:16:43;;;;;;;;;;;;;;;;;;5094746;28;19969;-73
2023/04/11 08:19:46;;;;;;;;;;;;;;;;;;5095174;28;19935;-77
2023/04/11 08:22:49;;;;;;;;;;;;;;;;;;5094506;28;19921;-76
2023/04/11 08:25:52;;;;;;;;;;;;;;;;;;5094869;28;19935;-70
2023/04/11 08:28:54;;;;;;;;;;;;;;;;;;5094728;28;19919;-72
2023/04/11 08:31:57;;;;;;;;;;;;;;;;;;5094983;28;19966;-69
2023/04/11 08:35:00;;;;;;;;;;;;;;;;;;5094586;28;20398;-66
2023/04/11 08:38:03;;;;;;;;;;;;;;;;;;5094559;28;20386;-67
2023/04/11 08:41:06;;;;;;;;;;;;;;;;;;5094392;28;19965;-68
2023/04/11 08:44:09;;;;;;;;;;;;;;;;;;5094407;28;19951;-68
2023/04/11 08:47:11;;;;;;;;;;;;;;;;;;5092780;28;20319;-68
2023/04/11 08:50:14;;;;;;;;;;;;;;;;;;5093668;28;19923;-68
2023/04/11 08:53:17;;;;;;;;;;;;;;;;;;5093380;28;19966;-68
2023/04/11 08:56:20;;;;;;;;;;;;;;;;;;5093358;28;19927;-68
2023/04/11 08:59:22;;;;;;;;;;;;;;;;;;5093174;28;19927;-68
2023/04/11 09:02:26;;;;;;;;;;;;;;;;;;5094107;28;19918;-68
2023/04/11 09:05:29;;;;;;;;;;;;;;;;;;5094528;28;19919;-69
2023/04/11 09:08:53;;;;;;;;;;;;;;;;;;5093941;28;19966;-69
2023/04/11 09:11:58;;;;;;;;;;;;;;;;;;5093887;28;19966;-69
2023/04/11 09:15:28;;;;;;;;;;;;;;;;;;5085190;28;19923;-69
2023/04/11 09:18:32;;;;;;;;;;;;;;;;;;5093740;28;19918;-72
2023/04/11 09:21:35;;;;;;;;;;;;;;;;;;5093731;28;19919;-69
2023/04/11 09:24:38;;;;;;;;;;;;;;;;;;5093498;28;19922;-71
2023/04/11 09:27:40;;;;;;;;;;;;;;;;;;5093336;28;19919;-71
2023/04/11 09:30:43;;;;;;;;;;;;;;;;;;5093848;28;19970;-71
2023/04/11 09:33:46;;;;;;;;;;;;;;;;;;5093563;28;20000;-72
2023/04/11 09:36:49;;;;;;;;;;;;;;;;;;5093536;28;19922;-71
2023/04/11 09:39:52;;;;;;;;;;;;;;;;;;5093395;28;20392;-71
2023/04/11 09:42:55;;;;;;;;;;;;;;;;;;5093448;28;19918;-73
2023/04/11 09:45:58;;;;;;;;;;;;;;;;;;5093442;28;19919;-71
2023/04/11 09:49:01;;;;;;;;;;;;;;;;;;5093350;28;19965;-72
2023/04/11 09:52:04;;;;;;;;;;;;;;;;;;5093403;28;19923;-72
2023/04/11 09:55:07;;;;;;;;;;;;;;;;;;5093446;28;20378;-72
2023/04/11 09:58:10;;;;;;;;;;;;;;;;;;5093030;28;19931;-73
2023/04/11 10:01:14;;;;;;;;;;;;;;;;;;5093194;28;19935;-73
2023/04/11 10:04:19;;;;;;;;;;;;;;;;;;5093112;28;20473;-73
2023/04/11 10:07:22;;;;;;;;;;;;;;;;;;5093083;28;19919;-74
2023/04/11 10:10:25;;;;;;;;;;;;;;;;;;5093076;28;19965;-72
2023/04/11 10:13:27;;;;;;;;;;;;;;;;;;5093040;28;20399;-73
2023/04/11 10:16:32;;;;;;;;;;;;;;;;;;5092974;28;19927;-72
2023/04/11 10:19:35;;;;;;;;;;;;;;;;;;5093075;28;20366;-72
2023/04/11 10:22:38;;;;;;;;;;;;;;;;;;5093200;28;19919;-73
2023/04/11 10:25:41;;;;;;;;;;;;;;;;;;5092900;28;20338;-73
2023/04/11 10:28:43;;;;;;;;;;;;;;;;;;5093000;28;19962;-73
2023/04/11 10:31:46;;;;;;;;;;;;;;;;;;5092963;28;19919;-72
2023/04/11 10:34:49;;;;;;;;;;;;;;;;;;5092906;28;20011;-73
2023/04/11 10:37:52;;;;;;;;;;;;;;;;;;5092989;28;20010;-72
2023/04/11 10:40:55;;;;;;;;;;;;;;;;;;5094503;28;20049;-72
2023/04/11 10:43:58;;;;;;;;;;;;;;;;;;5096747;28;19958;-72
2023/04/11 10:47:01;;;;;;;;;;;;;;;;;;5096737;28;19923;-71
2023/04/11 10:50:03;;;;;;;;;;;;;;;;;;5096805;28;20403;-71
2023/04/11 10:53:06;;;;;;;;;;;;;;;;;;5096658;28;19919;-71
2023/04/11 10:56:09;;;;;;;;;;;;;;;;;;5096135;28;19922;-71
2023/04/11 10:59:12;;;;;;;;;;;;;;;;;;5095923;28;19927;-72
2023/04/11 11:02:15;;;;;;;;;;;;;;;;;;5094743;28;19973;-70
2023/04/11 11:05:19;;;;;;;;;;;;;;;;;;5095793;28;19918;-70
2023/04/11 11:08:22;;;;;;;;;;;;;;;;;;5095196;28;20359;-70
2023/04/11 11:11:25;;;;;;;;;;;;;;;;;;5096136;28;19919;-70
2023/04/11 11:14:29;;;;;;;;;;;;;;;;;;5096092;28;19919;-70
2023/04/11 11:17:32;;;;;;;;;;;;;;;;;;5096038;28;20469;-70
2023/04/11 11:20:35;;;;;;;;;;;;;;;;;;5095900;28;20015;-70
2023/04/11 11:23:38;;;;;;;;;;;;;;;;;;5095360;28;19982;-71
2023/04/11 11:26:41;;;;;;;;;;;;;;;;;;5095838;28;19919;-72
2023/04/11 11:29:44;;;;;;;;;;;;;;;;;;5095712;28;19919;-72
2023/04/11 11:32:47;;;;;;;;;;;;;;;;;;5095997;28;20325;-72
2023/04/11 11:35:53;;;;;;;;;;;;;;;;;;5095647;28;20304;-72
2023/04/11 11:38:56;;;;;;;;;;;;;;;;;;5095487;28;19920;-72
2023/04/11 11:41:59;;;;;;;;;;;;;;;;;;5095601;28;20038;-72
2023/04/11 11:45:02;;;;;;;;;;;;;;;;;;5095171;28;19919;-72
2023/04/11 11:48:05;;;;;;;;;;;;;;;;;;5095377;28;19935;-72
2023/04/11 11:51:09;;;;;;;;;;;;;;;;;;5094849;28;19918;-72
2023/04/11 11:54:12;;;;;;;;;;;;;;;;;;5095206;28;20442;-71
2023/04/11 11:57:14;;;;;;;;;;;;;;;;;;5095355;28;19981;-73
2023/04/11 12:00:17;;;;;;;;;;;;;;;;;;5095270;28;19928;-72
2023/04/11 12:03:20;;;;;;;;;;;;;;;;;;5095368;28;20391;-72
2023/04/11 12:06:23;;;;;;;;;;;;;;;;;;5095069;28;19938;-72
2023/04/11 12:09:26;;;;;;;;;;;;;;;;;;5095176;28;20336;-72
2023/04/11 12:12:29;;;;;;;;;;;;;;;;;;5095028;28;19923;-72
2023/04/11 12:15:32;;;;;;;;;;;;;;;;;;5094868;28;19923;-72
2023/04/11 12:18:35;;;;;;;;;;;;;;;;;;5094825;28;20053;-71
2023/04/11 12:21:38;;;;;;;;;;;;;;;;;;5094850;28;20345;-72
2023/04/11 12:24:41;;;;;;;;;;;;;;;;;;5094931;28;19922;-72
2023/04/11 12:27:44;;;;;;;;;;;;;;;;;;5094937;28;20430;-72
2023/04/11 12:30:47;;;;;;;;;;;;;;;;;;5094587;28;19981;-72
2023/04/11 12:33:50;;;;;;;;;;;;;;;;;;5094554;28;19978;-71
2023/04/11 12:36:52;;;;;;;;;;;;;;;;;;5094400;28;20379;-72
2023/04/11 12:39:55;;;;;;;;;;;;;;;;;;5094553;28;20011;-71
2023/04/11 12:42:58;;;;;;;;;;;;;;;;;;5094402;28;19919;-72
2023/04/11 12:46:01;;;;;;;;;;;;;;;;;;5094492;28;19919;-72
2023/04/11 12:49:04;;;;;;;;;;;;;;;;;;5094346;28;19920;-72
2023/04/11 12:52:08;;;;;;;;;;;;;;;;;;5094273;28;19918;-72
2023/04/11 12:55:10;;;;;;;;;;;;;;;;;;5093711;28;20429;-73
2023/04/11 12:58:14;;;;;;;;;;;;;;;;;;5092107;28;19967;-72
2023/04/11 13:01:18;;;;;;;;;;;;;;;;;;5092659;28;19918;-73
2023/04/11 13:04:22;;;;;;;;;;;;;;;;;;5092299;28;20292;-71
2023/04/11 13:07:26;;;;;;;;;;;;;;;;;;5093468;28;19973;-72
2023/04/11 13:10:29;;;;;;;;;;;;;;;;;;5093736;28;20415;-72
2023/04/11 13:13:31;;;;;;;;;;;;;;;;;;5093886;28;19992;-73
2023/04/11 13:16:34;;;;;;;;;;;;;;;;;;5093652;28;19962;-74
2023/04/11 13:19:37;;;;;;;;;;;;;;;;;;5093749;28;19965;-72
2023/04/11 13:22:40;;;;;;;;;;;;;;;;;;5093664;28;19920;-74
2023/04/11 13:25:43;;;;;;;;;;;;;;;;;;5093830;28;19919;-74
2023/04/11 13:28:46;;;;;;;;;;;;;;;;;;5093640;28;19958;-74
2023/04/11 13:31:49;;;;;;;;;;;;;;;;;;5093886;28;19920;-73
2023/04/11 13:34:52;;;;;;;;;;;;;;;;;;5093689;28;19964;-74
2023/04/11 13:37:56;;;;;;;;;;;;;;;;;;5093447;28;19923;-74
2023/04/11 13:40:59;;;;;;;;;;;;;;;;;;5093309;28;20021;-74
2023/04/11 13:44:01;;;;;;;;;;;;;;;;;;5093426;28;19957;-71
2023/04/11 13:47:06;;;;;;;;;;;;;;;;;;5093262;28;19923;-72
2023/04/11 13:50:09;;;;;;;;;;;;;;;;;;5091676;28;19920;-72
2023/04/11 13:53:11;;;;;;;;;;;;;;;;;;5093653;28;20072;-73
2023/04/11 13:56:14;;;;;;;;;;;;;;;;;;5092343;28;19961;-72
2023/04/11 13:59:17;;;;;;;;;;;;;;;;;;5093147;28;19965;-74
2023/04/11 14:02:20;;;;;;;;;;;;;;;;;;5093314;28;19923;-72
2023/04/11 14:05:25;;;;;;;;;;;;;;;;;;5093249;28;19945;-74
2023/04/11 14:08:28;;;;;;;;;;;;;;;;;;5093422;28;19919;-72
2023/04/11 14:11:31;;;;;;;;;;;;;;;;;;5093153;28;19965;-73
2023/04/11 14:14:34;;;;;;;;;;;;;;;;;;5094400;28;19965;-72
2023/04/11 14:17:37;;;;;;;;;;;;;;;;;;5097265;28;20022;-75
2023/04/11 14:20:39;;;;;;;;;;;;;;;;;;5097247;28;19919;-76
2023/04/11 14:23:42;;;;;;;;;;;;;;;;;;5096971;28;19919;-73
2023/04/11 14:26:45;;;;;;;;;;;;;;;;;;5096406;28;19919;-71
2023/04/11 14:29:50;;;;;;;;;;;;;;;;;;5077814;28;20379;-75
2023/04/11 14:32:54;;;;;;;;;;;;;;;;;;5076655;28;19919;-74
2023/04/11 14:35:57;;;;;;;;;;;;;;;;;;5076068;28;19939;-75
2023/04/11 14:39:00;;;;;;;;;;;;;;;;;;5076423;28;20506;-74
2023/04/11 14:42:03;;;;;;;;;;;;;;;;;;5084074;28;19919;-75
2023/04/11 14:45:07;;;;;;;;;;;;;;;;;;5096503;28;19935;-73
2023/04/11 14:48:10;;;;;;;;;;;;;;;;;;5096497;28;20387;-75
2023/04/11 14:51:13;;;;;;;;;;;;;;;;;;5096593;28;19934;-76
2023/04/11 14:54:16;;;;;;;;;;;;;;;;;;5096493;28;19919;-70
2023/04/11 14:57:19;;;;;;;;;;;;;;;;;;5096520;28;19944;-70
2023/04/11 15:00:23;;;;;;;;;;;;;;;;;;5096414;28;19927;-74
2023/04/11 15:03:32;;;;;;;;;;;;;;;;;;5096368;28;19920;-73
2023/04/11 15:06:36;;;;;;;;;;;;;;;;;;5084312;28;19919;-73
2023/04/11 15:09:39;;;;;;;;;;;;;;;;;;5096127;28;20339;-73
2023/04/11 15:12:43;;;;;;;;;;;;;;;;;;5083547;28;19934;-74
2023/04/11 15:15:48;;;;;;;;;;;;;;;;;;5095942;28;19966;-74
2023/04/11 15:18:50;;;;;;;;;;;;;;;;;;5095949;28;19966;-74
2023/04/11 15:21:54;;;;;;;;;;;;;;;;;;5093932;28;19923;-75
2023/04/11 15:24:58;;;;;;;;;;;;;;;;;;5093650;28;19919;-75
2023/04/11 15:28:02;;;;;;;;;;;;;;;;;;5095542;28;19954;-74
2023/04/11 15:31:19;;;;;;;;;;;;;;;;;;5095761;28;19918;-75
2023/04/11 15:34:23;;;;;;;;;;;;;;;;;;5095766;28;20284;-76
2023/04/11 15:37:27;;;;;;;;;;;;;;;;;;5095599;28;19923;-76
2023/04/11 15:40:31;;;;;;;;;;;;;;;;;;5095883;28;19923;-74
2023/04/11 15:43:33;;;;;;;;;;;;;;;;;;5095574;28;19951;-75
2023/04/11 15:46:36;;;;;;;;;;;;;;;;;;5095616;28;20463;-77
2023/04/11 15:49:40;;;;;;;;;;;;;;;;;;5094745;28;20025;-74
2023/04/11 15:52:49;;;;;;;;;;;;;;;;;;5082369;28;19938;-73
2023/04/11 15:55:52;;;;;;;;;;;;;;;;;;5081517;28;19989;-73
2023/04/11 15:58:56;;;;;;;;;;;;;;;;;;5093661;28;20041;-72
2023/04/11 16:01:59;;;;;;;;;;;;;;;;;;5081919;28;19981;-72
2023/04/11 16:05:04;;;;;;;;;;;;;;;;;;5095060;28;19922;-73
2023/04/11 16:08:07;;;;;;;;;;;;;;;;;;5081776;28;19935;-72
2023/04/11 16:11:09;;;;;;;;;;;;;;;;;;5095036;28;19931;-72
2023/04/11 16:14:12;;;;;;;;;;;;;;;;;;5094927;28;20420;-72
2023/04/11 16:17:17;;;;;;;;;;;;;;;;;;5094819;28;19927;-72
2023/04/11 16:20:20;;;;;;;;;;;;;;;;;;5094826;28;19942;-72
2023/04/11 16:23:23;;;;;;;;;;;;;;;;;;5082003;28;19920;-73
2023/04/11 16:26:26;;;;;;;;;;;;;;;;;;5094643;28;19918;-73
2023/04/11 16:29:29;;;;;;;;;;;;;;;;;;5094515;28;19919;-73
2023/04/11 16:32:32;;;;;;;;;;;;;;;;;;5094494;28;19918;-73
2023/04/11 16:35:35;;;;;;;;;;;;;;;;;;5081701;28;19926;-74
2023/04/11 16:38:38;;;;;;;;;;;;;;;;;;5094410;28;19965;-75
2023/04/11 16:41:40;;;;;;;;;;;;;;;;;;5094353;28;20021;-75
2023/04/11 16:44:45;;;;;;;;;;;;;;;;;;5094607;28;19919;-74
2023/04/11 16:47:47;;;;;;;;;;;;;;;;;;5094584;28;19919;-75
2023/04/11 16:50:51;;;;;;;;;;;;;;;;;;5093446;28;19962;-75
2023/04/11 16:53:54;;;;;;;;;;;;;;;;;;5094012;28;19919;-74
2023/04/11 16:56:57;;;;;;;;;;;;;;;;;;5094009;28;19970;-75
2023/04/11 17:00:12;;;;;;;;;;;;;;;;;;5094252;28;20032;-75
2023/04/11 17:03:16;;;;;;;;;;;;;;;;;;5093342;28;20113;-75
2023/04/11 17:06:19;;;;;;;;;;;;;;;;;;5093913;28;19918;-73
2023/04/11 17:09:22;;;;;;;;;;;;;;;;;;5093818;28;19935;-74
2023/04/11 17:12:24;;;;;;;;;;;;;;;;;;5093808;28;20076;-72
2023/04/11 17:15:27;;;;;;;;;;;;;;;;;;5093751;28;19970;-71
2023/04/11 17:18:36;;;;;;;;;;;;;;;;;;5094010;28;19923;-72
2023/04/11 17:21:40;;;;;;;;;;;;;;;;;;5094045;28;19927;-74
2023/04/11 17:24:45;;;;;;;;;;;;;;;;;;5093607;28;19959;-75
2023/04/11 17:27:48;;;;;;;;;;;;;;;;;;5093687;28;19919;-75
2023/04/11 17:30:52;;;;;;;;;;;;;;;;;;5093935;28;20023;-75
2023/04/11 17:33:54;;;;;;;;;;;;;;;;;;5095024;28;20033;-70
2023/04/11 17:36:57;;;;;;;;;;;;;;;;;;5093466;28;20387;-77
2023/04/11 17:40:00;;;;;;;;;;;;;;;;;;5093478;28;19965;-77
2023/04/11 17:43:04;;;;;;;;;;;;;;;;;;5093336;28;20308;-76
2023/04/11 17:46:07;;;;;;;;;;;;;;;;;;5092949;28;19965;-76
2023/04/11 17:49:34;;;;;;;;;;;;;;;;;;5093232;28;19923;-78
2023/04/11 17:52:37;;;;;;;;;;;;;;;;;;5093283;28;20421;-74
2023/04/11 17:55:40;;;;;;;;;;;;;;;;;;5093231;28;19927;-74
2023/04/11 17:58:45;;;;;;;;;;;;;;;;;;5093046;28;19974;-75
2023/04/11 18:01:48;;;;;;;;;;;;;;;;;;5093545;28;19918;-76
2023/04/11 18:04:52;;;;;;;;;;;;;;;;;;5093260;28;20287;-77
2023/04/11 18:07:56;;;;;;;;;;;;;;;;;;5093147;28;19923;-76
2023/04/11 18:10:59;;;;;;;;;;;;;;;;;;5093435;28;19919;-76
2023/04/11 18:14:02;;;;;;;;;;;;;;;;;;5092501;28;20004;-77
2023/04/11 18:17:05;;;;;;;;;;;;;;;;;;5092734;28;19923;-73
2023/04/11 18:20:11;;;;;;;;;;;;;;;;;;5093438;28;20004;-76
2023/04/11 18:23:15;;;;;;;;;;;;;;;;;;5093140;28;20423;-76
2023/04/11 18:26:18;;;;;;;;;;;;;;;;;;5093399;28;20338;-76
2023/04/11 18:29:23;;;;;;;;;;;;;;;;;;5093346;28;19965;-76
2023/04/11 18:32:26;;;;;;;;;;;;;;;;;;5093003;28;20473;-76
2023/04/11 18:35:29;;;;;;;;;;;;;;;;;;5092820;28;19954;-76
2023/04/11 18:38:32;;;;;;;;;;;;;;;;;;5093154;28;19919;-77
2023/04/11 18:41:34;;;;;;;;;;;;;;;;;;5092397;28;19919;-77
2023/04/11 18:44:37;;;;;;;;;;;;;;;;;;5092604;28;20338;-72
2023/04/11 18:47:40;;;;;;;;;;;;;;;;;;5092487;28;19924;-72
2023/04/11 18:50:47;;;;;;;;;;;;;;;;;;5092979;28;19935;-71
2023/04/11 18:53:51;;;;;;;;;;;;;;;;;;5092595;28;20438;-75
2023/04/11 18:56:54;;;;;;;;;;;;;;;;;;5092651;28;20344;-71
2023/04/11 18:59:58;;;;;;;;;;;;;;;;;;5080064;28;19927;-71
2023/04/11 19:03:09;;;;;;;;;;;;;;;;;;5096153;28;19964;-72
2023/04/11 19:06:19;;;;;;;;;;;;;;;;;;5096408;28;20322;-73
2023/04/11 19:09:22;;;;;;;;;;;;;;;;;;5096158;28;19919;-74
2023/04/11 19:12:25;;;;;;;;;;;;;;;;;;5096140;28;20334;-71
2023/04/11 19:15:28;;;;;;;;;;;;;;;;;;5095996;28;19919;-71
2023/04/11 19:18:31;;;;;;;;;;;;;;;;;;5095731;28;19919;-71
2023/04/11 19:21:35;;;;;;;;;;;;;;;;;;5096387;28;19919;-72
2023/04/11 19:24:38;;;;;;;;;;;;;;;;;;5107230;28;20048;-71
2023/04/11 19:27:43;;;;;;;;;;;;;;;;;;5095947;28;20383;-72
2023/04/11 19:30:46;;;;;;;;;;;;;;;;;;5106783;28;19972;-73
2023/04/11 19:33:51;;;;;;;;;;;;;;;;;;5096124;28;19919;-72
2023/04/11 19:36:54;;;;;;;;;;;;;;;;;;5094742;28;19970;-72
2023/04/11 19:40:00;;;;;;;;;;;;;;;;;;5095680;28;19919;-69
2023/04/11 19:43:03;;;;;;;;;;;;;;;;;;5095740;28;19918;-69
2023/04/11 19:46:07;;;;;;;;;;;;;;;;;;5095703;28;19919;-69
2023/04/11 19:49:10;;;;;;;;;;;;;;;;;;5094955;28;19965;-70
2023/04/11 19:52:16;;;;;;;;;;;;;;;;;;5095203;28;19919;-70
2023/04/11 19:55:19;;;;;;;;;;;;;;;;;;5095270;28;19957;-70
2023/04/11 19:58:25;;;;;;;;;;;;;;;;;;5095076;28;20362;-71
2023/04/11 20:01:28;;;;;;;;;;;;;;;;;;5094312;28;19940;-70
2023/04/11 20:04:32;;;;;;;;;;;;;;;;;;5095104;28;19919;-71
2023/04/11 20:07:35;;;;;;;;;;;;;;;;;;5095261;28;19950;-70
2023/04/11 20:10:39;;;;;;;;;;;;;;;;;;5095111;28;19972;-70
2023/04/11 20:13:43;;;;;;;;;;;;;;;;;;5094622;28;20391;-70
2023/04/11 20:16:46;;;;;;;;;;;;;;;;;;5094836;28;19969;-70
2023/04/11 20:19:50;;;;;;;;;;;;;;;;;;5094808;28;19918;-71
2023/04/11 20:22:53;;;;;;;;;;;;;;;;;;5094908;28;19966;-70
2023/04/11 20:25:56;;;;;;;;;;;;;;;;;;5094717;28;20448;-70
2023/04/11 20:28:59;;;;;;;;;;;;;;;;;;5094884;28;20008;-70
2023/04/11 20:32:02;;;;;;;;;;;;;;;;;;5095015;28;19927;-70
2023/04/11 20:35:05;;;;;;;;;;;;;;;;;;5094529;28;19957;-70
2023/04/11 20:38:08;;;;;;;;;;;;;;;;;;5082115;28;19947;-70
2023/04/11 20:41:12;;;;;;;;;;;;;;;;;;5094539;28;19958;-71
2023/04/11 20:44:17;;;;;;;;;;;;;;;;;;5094435;28;19958;-70
2023/04/11 20:47:21;;;;;;;;;;;;;;;;;;5094408;28;19920;-70
2023/04/11 20:50:29;;;;;;;;;;;;;;;;;;5093521;28;19919;-70
2023/04/11 20:53:32;;;;;;;;;;;;;;;;;;5094489;28;20377;-71
2023/04/11 20:56:35;;;;;;;;;;;;;;;;;;5094003;28;19962;-71
2023/04/11 20:59:38;;;;;;;;;;;;;;;;;;5093892;28;19927;-70